Time;durP1;ratioP1;P1;durP2;ratioP2;P2;SDS_P1;SDS_P2;PMS_P1;PMS_P2;Temp;Humidity;BMP_temperature;BMP_pressure;BME280_temperature;BME280_humidity;BME280_pressure;Samples;Min_cycle;Max_cycle;Signal;HPM_P1;HPM_P2
2021/09/08 00:00:50;;;;;;;18.63;12.73;;;19.30;64.70;;;;;;5052673;28;20063;-65
2021/09/08 00:03:16;;;;;;;18.67;11.85;;;19.20;64.70;;;;;;5051845;28;20574;-63
2021/09/08 00:05:42;;;;;;;20.08;12.80;;;19.10;64.60;;;;;;5052481;28;20025;-64
2021/09/08 00:08:08;;;;;;;21.48;12.45;;;19.20;64.70;;;;;;5034401;28;20025;-64
2021/09/08 00:10:34;;;;;;;17.38;11.52;;;19.10;64.80;;;;;;5051932;28;20504;-64
2021/09/08 00:13:00;;;;;;;19.83;11.93;;;19.10;64.80;;;;;;5051943;28;20036;-65
2021/09/08 00:15:25;;;;;;;17.52;11.70;;;19.00;64.80;;;;;;5051546;28;20025;-64
2021/09/08 00:17:51;;;;;;;19.33;12.18;;;19.00;64.90;;;;;;5053038;28;20029;-64
2021/09/08 00:20:17;;;;;;;20.23;12.02;;;19.00;64.90;;;;;;5052331;28;20076;-64
2021/09/08 00:22:45;;;;;;;20.77;11.98;;;19.00;65.00;;;;;;5034496;28;20064;-64
2021/09/08 00:25:11;;;;;;;17.55;11.57;;;18.90;65.00;;;;;;5035975;28;20048;-64
2021/09/08 00:27:37;;;;;;;20.70;11.82;;;18.90;65.00;;;;;;5054482;28;20025;-63
2021/09/08 00:30:04;;;;;;;17.42;12.05;;;18.90;65.20;;;;;;5072763;28;20054;-64
2021/09/08 00:32:30;;;;;;;16.42;11.07;;;18.90;65.20;;;;;;5054089;28;20029;-64
2021/09/08 00:34:56;;;;;;;15.88;11.63;;;18.90;65.20;;;;;;5071787;28;20028;-63
2021/09/08 00:37:22;;;;;;;20.92;11.95;;;18.80;65.20;;;;;;5071642;28;20021;-63
2021/09/08 00:39:47;;;;;;;17.50;11.95;;;18.80;65.20;;;;;;5054567;28;20028;-64
2021/09/08 00:42:15;;;;;;;19.83;11.60;;;18.80;65.30;;;;;;5072231;28;20028;-64
2021/09/08 00:44:42;;;;;;;18.23;11.15;;;18.80;65.20;;;;;;5055051;28;20032;-63
2021/09/08 00:47:12;;;;;;;15.65;10.23;;;18.70;65.20;;;;;;5054832;28;20028;-63
2021/09/08 00:49:38;;;;;;;18.55;11.75;;;18.70;65.40;;;;;;5072622;28;20204;-65
2021/09/08 00:52:05;;;;;;;16.88;12.18;;;18.70;65.40;;;;;;5069926;28;20049;-63
2021/09/08 00:54:34;;;;;;;23.58;11.68;;;18.60;65.40;;;;;;5069328;28;20124;-64
2021/09/08 00:57:03;;;;;;;16.42;10.75;;;18.60;65.50;;;;;;5071289;28;20377;-65
2021/09/08 00:59:30;;;;;;;15.63;11.35;;;18.60;65.50;;;;;;5070696;28;20028;-63
2021/09/08 01:01:58;;;;;;;19.52;10.75;;;18.60;65.50;;;;;;5071353;28;20032;-64
2021/09/08 01:04:24;;;;;;;15.70;11.00;;;18.60;65.50;;;;;;5052827;28;20028;-64
2021/09/08 01:06:49;;;;;;;17.08;11.07;;;18.60;65.50;;;;;;5070987;28;20032;-64
2021/09/08 01:09:17;;;;;;;18.58;10.80;;;18.60;65.50;;;;;;5070961;28;20100;-63
2021/09/08 01:11:42;;;;;;;17.95;10.45;;;18.50;65.40;;;;;;5070647;28;20115;-64
2021/09/08 01:14:10;;;;;;;17.27;10.70;;;18.50;65.40;;;;;;5070946;28;20467;-65
2021/09/08 01:16:36;;;;;;;18.08;12.43;;;18.50;65.40;;;;;;5071302;28;20579;-64
2021/09/08 01:19:22;;;;;;;17.95;11.55;;;18.50;65.40;;;;;;5070511;28;20032;-64
2021/09/08 01:21:49;;;;;;;21.33;10.55;;;18.50;65.60;;;;;;5053247;28;20020;-64
2021/09/08 01:24:15;;;;;;;14.65;10.60;;;18.50;65.40;;;;;;5070502;28;20028;-64
2021/09/08 01:26:42;;;;;;;19.80;11.23;;;18.50;65.40;;;;;;5071195;28;20509;-65
2021/09/08 01:29:09;;;;;;;14.80;10.40;;;18.50;65.50;;;;;;5071344;28;20028;-65
2021/09/08 01:31:35;;;;;;;16.45;10.63;;;18.50;65.60;;;;;;5052407;28;20052;-64
2021/09/08 01:34:02;;;;;;;19.88;11.23;;;18.50;65.50;;;;;;5053221;28;20071;-64
2021/09/08 01:36:27;;;;;;;16.13;10.20;;;18.50;65.50;;;;;;5070833;28;20416;-65
2021/09/08 01:39:21;;;;;;;15.57;10.77;;;18.50;65.50;;;;;;5052833;28;20457;-65
2021/09/08 01:41:50;;;;;;;16.10;11.27;;;18.50;65.40;;;;;;5053512;28;20117;-64
2021/09/08 01:44:23;;;;;;;20.13;11.20;;;18.50;65.40;;;;;;5052793;28;20259;-64
2021/09/08 01:46:54;;;;;;;17.35;10.57;;;18.50;65.50;;;;;;5070609;28;20036;-64
2021/09/08 01:49:28;;;;;;;17.45;10.35;;;18.40;65.40;;;;;;5070642;28;20028;-64
2021/09/08 01:51:56;;;;;;;14.98;10.75;;;18.40;65.40;;;;;;5053830;28;20024;-64
2021/09/08 01:54:25;;;;;;;14.95;10.85;;;18.40;65.50;;;;;;5070801;28;20032;-65
2021/09/08 01:56:51;;;;;;;15.60;10.80;;;18.40;65.50;;;;;;5052591;28;20036;-64
2021/09/08 01:59:17;;;;;;;18.10;10.85;;;18.40;65.50;;;;;;5052454;28;20024;-63
2021/09/08 02:01:43;;;;;;;15.57;10.40;;;18.40;65.50;;;;;;5053102;28;20029;-66
2021/09/08 02:04:10;;;;;;;18.67;11.70;;;18.40;65.50;;;;;;5071315;28;20029;-64
2021/09/08 02:06:51;;;;;;;17.40;10.70;;;18.40;65.60;;;;;;5070292;28;20111;-64
2021/09/08 02:09:18;;;;;;;16.95;10.68;;;18.40;65.60;;;;;;5069972;28;20021;-63
2021/09/08 02:11:44;;;;;;;17.58;10.80;;;18.30;65.50;;;;;;5052509;28;20033;-63
2021/09/08 02:14:10;;;;;;;14.30;10.93;;;18.30;65.80;;;;;;5069953;28;20075;-64
2021/09/08 02:16:36;;;;;;;15.68;10.48;;;18.30;65.70;;;;;;5051853;28;20497;-64
2021/09/08 02:19:02;;;;;;;15.98;11.23;;;18.30;65.60;;;;;;5070752;28;20060;-64
2021/09/08 02:21:28;;;;;;;20.75;10.73;;;18.30;65.70;;;;;;5068868;28;20079;-64
2021/09/08 02:23:53;;;;;;;16.70;11.05;;;18.30;65.70;;;;;;5070363;28;20032;-64
2021/09/08 02:26:19;;;;;;;16.92;11.15;;;18.30;65.80;;;;;;5051811;28;20060;-65
2021/09/08 02:28:45;;;;;;;16.65;11.05;;;18.30;65.90;;;;;;5070364;28;20135;-64
2021/09/08 02:31:11;;;;;;;17.98;11.45;;;18.30;66.00;;;;;;5073079;28;20031;-64
2021/09/08 02:33:37;;;;;;;18.48;12.65;;;18.30;66.20;;;;;;5074606;28;20079;-64
2021/09/08 02:36:04;;;;;;;20.90;12.07;;;18.20;66.20;;;;;;5056464;28;20457;-65
2021/09/08 02:38:31;;;;;;;22.38;12.55;;;18.20;66.50;;;;;;5055982;28;20029;-64
2021/09/08 02:41:05;;;;;;;27.92;13.20;;;18.20;66.70;;;;;;5074329;28;20039;-64
2021/09/08 02:43:32;;;;;;;24.30;13.35;;;18.20;66.90;;;;;;5055941;28;20025;-63
2021/09/08 02:46:01;;;;;;;32.10;13.60;;;18.20;67.10;;;;;;5057336;28;20115;-64
2021/09/08 02:48:27;;;;;;;24.23;14.32;;;18.20;67.20;;;;;;5056173;28;20020;-63
2021/09/08 02:50:53;;;;;;;21.88;12.82;;;18.10;67.10;;;;;;5073748;28;20028;-65
2021/09/08 02:53:19;;;;;;;19.88;13.13;;;18.10;66.90;;;;;;5073933;28;20138;-65
2021/09/08 02:55:44;;;;;;;24.42;13.00;;;18.10;67.00;;;;;;5074412;28;20103;-64
2021/09/08 02:58:10;;;;;;;24.95;13.73;;;18.10;66.90;;;;;;5074186;28;20025;-65
2021/09/08 03:00:36;;;;;;;22.45;13.88;;;18.00;66.70;;;;;;5073491;28;20032;-65
2021/09/08 03:03:02;;;;;;;23.27;13.57;;;18.00;66.60;;;;;;5055882;28;20037;-64
2021/09/08 03:05:28;;;;;;;22.92;12.95;;;18.10;66.60;;;;;;5055076;28;20025;-64
2021/09/08 03:07:53;;;;;;;22.20;13.75;;;18.10;66.50;;;;;;5073840;28;20020;-64
2021/09/08 03:10:20;;;;;;;25.38;12.85;;;18.10;66.30;;;;;;5073324;28;20036;-64
2021/09/08 03:12:46;;;;;;;26.20;12.25;;;18.10;66.30;;;;;;5073551;28;20037;-64
2021/09/08 03:15:12;;;;;;;21.65;11.93;;;18.10;66.20;;;;;;5073593;28;20021;-64
2021/09/08 03:17:39;;;;;;;18.60;13.05;;;18.10;66.00;;;;;;5055498;28;20598;-64
2021/09/08 03:20:05;;;;;;;21.00;12.82;;;18.10;65.90;;;;;;5055726;28;20029;-65
2021/09/08 03:22:31;;;;;;;18.30;13.13;;;18.10;65.90;;;;;;5073998;28;20370;-65
2021/09/08 03:24:57;;;;;;;23.13;12.38;;;18.10;65.70;;;;;;5055248;28;20028;-66
2021/09/08 03:27:23;;;;;;;23.98;12.95;;;18.00;65.60;;;;;;5073211;28;20388;-64
2021/09/08 03:29:49;;;;;;;20.10;13.15;;;18.00;65.00;;;;;;5073464;28;20031;-67
2021/09/08 03:32:15;;;;;;;19.77;12.80;;;18.00;65.20;;;;;;5055600;28;20034;-64
2021/09/08 03:34:41;;;;;;;17.52;12.32;;;18.00;65.00;;;;;;5073525;28;20025;-64
2021/09/08 03:37:06;;;;;;;18.80;12.93;;;18.00;64.60;;;;;;5055501;28;20070;-64
2021/09/08 03:39:32;;;;;;;20.10;12.38;;;18.00;64.30;;;;;;5054818;28;20394;-62
2021/09/08 03:41:58;;;;;;;20.30;13.50;;;18.00;63.80;;;;;;5072198;28;20024;-63
2021/09/08 03:44:23;;;;;;;21.40;12.73;;;18.00;63.70;;;;;;5072788;28;20028;-63
2021/09/08 03:46:49;;;;;;;20.88;13.38;;;17.90;63.50;;;;;;5073389;28;20051;-64
2021/09/08 03:49:15;;;;;;;18.13;13.05;;;17.90;63.20;;;;;;5055052;28;20032;-63
2021/09/08 03:51:41;;;;;;;18.20;12.13;;;17.90;63.30;;;;;;5073330;28;20032;-64
2021/09/08 03:54:06;;;;;;;16.33;12.10;;;17.90;63.00;;;;;;5073030;28;20470;-63
2021/09/08 03:56:32;;;;;;;25.67;16.13;;;17.90;62.90;;;;;;5072333;28;20020;-65
2021/09/08 03:58:58;;;;;;;19.08;13.32;;;17.90;62.90;;;;;;5074116;28;20020;-64
2021/09/08 04:01:23;;;;;;;20.00;11.65;;;17.90;62.90;;;;;;5054507;28;20028;-65
2021/09/08 04:03:49;;;;;;;21.52;12.13;;;17.90;62.50;;;;;;5072981;28;20052;-64
2021/09/08 04:06:17;;;;;;;20.00;12.25;;;17.90;62.50;;;;;;5072755;28;20086;-64
2021/09/08 04:09:02;;;;;;;24.30;11.55;;;17.90;62.40;;;;;;5055136;28;20118;-64
2021/09/08 04:11:27;;;;;;;18.35;11.80;;;17.90;62.40;;;;;;5053615;28;20036;-63
2021/09/08 04:13:53;;;;;;;19.70;11.30;;;17.90;62.10;;;;;;5072597;28;20024;-64
2021/09/08 04:16:18;;;;;;;20.77;12.15;;;17.90;62.00;;;;;;5054298;28;20453;-63
2021/09/08 04:18:44;;;;;;;17.90;11.23;;;17.90;61.80;;;;;;5073385;28;20055;-64
2021/09/08 04:21:10;;;;;;;18.42;11.13;;;17.90;61.60;;;;;;5072489;28;20029;-64
2021/09/08 04:23:35;;;;;;;17.77;11.57;;;17.90;61.00;;;;;;5053957;28;20035;-64
2021/09/08 04:26:01;;;;;;;16.05;10.93;;;17.90;60.90;;;;;;5044611;28;20044;-64
2021/09/08 04:28:27;;;;;;;17.30;11.10;;;17.90;60.80;;;;;;5034435;28;20028;-64
2021/09/08 04:30:52;;;;;;;18.05;11.02;;;17.90;60.80;;;;;;5053006;28;20031;-64
2021/09/08 04:33:18;;;;;;;15.98;11.77;;;17.90;60.40;;;;;;5052118;28;20040;-63
2021/09/08 04:35:44;;;;;;;15.93;10.85;;;17.90;60.70;;;;;;5034933;28;20025;-63
2021/09/08 04:38:28;;;;;;;17.15;10.80;;;17.90;60.40;;;;;;5052250;28;20052;-65
2021/09/08 04:40:54;;;;;;;24.08;11.30;;;17.90;59.70;;;;;;5052787;28;20047;-66
2021/09/08 04:43:20;;;;;;;15.30;10.82;;;17.90;60.50;;;;;;5033830;28;20492;-63
2021/09/08 04:45:46;;;;;;;16.88;12.02;;;17.90;60.60;;;;;;5034654;28;20459;-64
2021/09/08 04:48:12;;;;;;;23.80;10.95;;;17.90;60.20;;;;;;5018286;28;20025;-65
2021/09/08 04:50:38;;;;;;;17.48;10.50;;;17.90;59.90;;;;;;5052059;28;20021;-64
2021/09/08 04:53:04;;;;;;;17.13;10.68;;;17.90;59.50;;;;;;5051561;28;20047;-64
2021/09/08 04:55:30;;;;;;;17.20;10.70;;;17.90;59.30;;;;;;5051676;28;20056;-65
2021/09/08 04:57:56;;;;;;;18.50;10.73;;;17.90;59.20;;;;;;5034507;28;20029;-65
2021/09/08 05:00:21;;;;;;;17.17;10.48;;;18.00;59.20;;;;;;5033930;28;20028;-63
2021/09/08 05:05:32;;;;;;;13.57;9.98;;;18.00;59.30;;;;;;5052618;28;20036;-65
2021/09/08 05:07:57;;;;;;;13.68;10.13;;;18.00;59.40;;;;;;5034188;28;20021;-64
2021/09/08 05:10:23;;;;;;;12.82;9.13;;;18.00;58.60;;;;;;5051864;28;20028;-64
2021/09/08 05:12:49;;;;;;;16.15;10.05;;;17.90;58.40;;;;;;5051725;28;20056;-65
2021/09/08 05:15:16;;;;;;;15.82;10.65;;;18.00;58.40;;;;;;5033399;28;20055;-65
2021/09/08 05:17:41;;;;;;;14.77;10.32;;;18.00;58.30;;;;;;5051520;28;20037;-65
2021/09/08 05:20:08;;;;;;;14.63;9.57;;;18.10;58.30;;;;;;5051366;28;20028;-64
2021/09/08 05:22:34;;;;;;;19.08;10.63;;;18.10;58.30;;;;;;5051402;28;20071;-65
2021/09/08 05:25:00;;;;;;;15.38;9.82;;;18.20;58.00;;;;;;5035064;28;20017;-65
2021/09/08 05:27:25;;;;;;;18.92;11.10;;;18.20;57.70;;;;;;5053286;28;20028;-65
2021/09/08 05:29:51;;;;;;;15.80;10.15;;;18.20;57.60;;;;;;5053261;28;20048;-64
2021/09/08 05:32:17;;;;;;;25.10;10.38;;;18.30;57.50;;;;;;5070728;28;20035;-64
2021/09/08 05:34:43;;;;;;;14.93;9.18;;;18.30;57.60;;;;;;5071559;28;20020;-63
2021/09/08 05:37:09;;;;;;;16.02;10.85;;;18.30;57.70;;;;;;5053226;28;20032;-63
2021/09/08 05:39:34;;;;;;;21.40;11.45;;;18.40;57.50;;;;;;5071298;28;20020;-64
2021/09/08 05:42:00;;;;;;;17.58;10.80;;;18.40;57.50;;;;;;5071267;28;20476;-63
2021/09/08 05:44:26;;;;;;;15.40;9.55;;;18.40;57.50;;;;;;5070870;28;20170;-64
2021/09/08 05:46:51;;;;;;;17.38;10.32;;;18.50;57.80;;;;;;5053279;28;20134;-65
2021/09/08 05:49:18;;;;;;;15.05;10.52;;;18.50;57.50;;;;;;5070726;28;20365;-65
2021/09/08 05:51:44;;;;;;;18.58;11.07;;;18.50;57.60;;;;;;5071244;28;20108;-64
2021/09/08 05:54:09;;;;;;;19.13;11.55;;;18.60;57.50;;;;;;5070741;28;20174;-63
2021/09/08 05:56:35;;;;;;;18.65;11.00;;;18.60;57.60;;;;;;5053354;28;20455;-64
2021/09/08 05:59:02;;;;;;;30.17;12.10;;;18.70;57.80;;;;;;5053150;28;20024;-64
2021/09/08 06:01:27;;;;;;;17.35;11.65;;;18.70;57.80;;;;;;5070440;28;20189;-63
2021/09/08 06:03:53;;;;;;;20.10;12.02;;;18.70;57.70;;;;;;5071213;28;20347;-63
2021/09/08 06:06:19;;;;;;;15.80;11.55;;;18.70;57.70;;;;;;5056190;28;20089;-63
2021/09/08 06:09:03;;;;;;;16.95;11.52;;;18.80;57.70;;;;;;5057041;28;20442;-64
2021/09/08 06:11:29;;;;;;;21.80;12.30;;;18.80;57.50;;;;;;5074315;28;20020;-64
2021/09/08 06:13:55;;;;;;;23.38;11.23;;;18.80;57.60;;;;;;5074880;28;20111;-64
2021/09/08 06:16:22;;;;;;;16.98;11.60;;;18.90;57.90;;;;;;5056213;28;20396;-63
2021/09/08 06:18:48;;;;;;;23.35;12.25;;;19.00;57.70;;;;;;5055952;28;20054;-64
2021/09/08 06:21:18;;;;;;;15.75;11.75;;;19.00;57.60;;;;;;5073392;28;20032;-65
2021/09/08 06:23:49;;;;;;;18.95;11.93;;;19.00;57.50;;;;;;5074497;28;20050;-63
2021/09/08 06:26:17;;;;;;;21.55;12.02;;;19.00;57.50;;;;;;5073905;28;20043;-64
2021/09/08 06:28:58;;;;;;;15.63;11.63;;;19.10;57.30;;;;;;5055772;28;20024;-64
2021/09/08 06:31:37;;;;;;;20.42;11.60;;;19.20;57.30;;;;;;5073333;28;20032;-64
2021/09/08 06:34:09;;;;;;;16.25;12.13;;;19.20;57.30;;;;;;5073281;28;20039;-66
2021/09/08 06:36:55;;;;;;;20.57;11.60;;;19.20;56.90;;;;;;5073833;28;20036;-65
2021/09/08 06:39:43;;;;;;;15.35;10.95;;;19.30;57.60;;;;;;5054977;28;20044;-64
2021/09/08 06:42:09;;;;;;;19.13;11.27;;;19.40;56.50;;;;;;5054773;28;20024;-64
2021/09/08 06:44:35;;;;;;;20.83;11.85;;;19.40;55.90;;;;;;5056430;28;20031;-66
2021/09/08 06:47:02;;;;;;;22.67;11.77;;;19.50;56.00;;;;;;5056506;28;20029;-66
2021/09/08 06:49:28;;;;;;;15.50;10.63;;;19.50;55.80;;;;;;5055553;28;20035;-65
2021/09/08 06:51:53;;;;;;;18.02;11.68;;;19.60;55.90;;;;;;5073360;28;20119;-65
2021/09/08 06:54:19;;;;;;;25.48;11.45;;;19.60;55.30;;;;;;5055560;28;20106;-65
2021/09/08 06:56:45;;;;;;;20.48;11.93;;;19.60;55.30;;;;;;5074168;28;20040;-65
2021/09/08 06:59:11;;;;;;;21.02;11.15;;;19.70;55.00;;;;;;5073414;28;20020;-64
2021/09/08 07:01:36;;;;;;;20.48;11.90;;;19.80;54.80;;;;;;5073399;28;20028;-64
2021/09/08 07:04:02;;;;;;;19.48;10.38;;;19.90;54.70;;;;;;5055398;28;20436;-64
2021/09/08 07:06:28;;;;;;;19.35;10.90;;;19.90;54.10;;;;;;5055690;28;20025;-63
2021/09/08 07:08:54;;;;;;;17.73;10.65;;;20.00;53.40;;;;;;5056269;28;20075;-66
2021/09/08 07:11:21;;;;;;;16.42;10.82;;;20.10;52.90;;;;;;5073984;28;20385;-64
2021/09/08 07:13:47;;;;;;;14.50;10.30;;;20.20;53.00;;;;;;5056163;28;20047;-64
2021/09/08 07:16:12;;;;;;;17.35;10.70;;;20.20;52.90;;;;;;5072962;28;20096;-64
2021/09/08 07:18:38;;;;;;;15.02;10.30;;;21.00;53.00;;;;;;5074138;28;20127;-64
2021/09/08 07:21:05;;;;;;;22.42;11.43;;;23.90;49.10;;;;;;5074104;28;20390;-63
2021/09/08 07:23:31;;;;;;;26.42;11.82;;;26.80;44.50;;;;;;5072930;28;20032;-62
2021/09/08 07:25:57;;;;;;;20.30;11.07;;;29.30;40.30;;;;;;5055781;28;20070;-66
2021/09/08 07:28:23;;;;;;;17.60;10.13;;;31.60;37.20;;;;;;5073386;28;20060;-64
2021/09/08 07:30:53;;;;;;;16.48;10.02;;;33.10;33.50;;;;;;5054978;28;20036;-64
2021/09/08 07:33:23;;;;;;;13.05;9.05;;;34.20;31.50;;;;;;5073392;28;20020;-63
2021/09/08 07:35:49;;;;;;;12.02;9.48;;;34.90;30.60;;;;;;5055503;28;20032;-64
2021/09/08 07:38:16;;;;;;;18.05;8.68;;;35.80;30.00;;;;;;5055052;28;20029;-64
2021/09/08 07:40:43;;;;;;;11.77;9.27;;;36.90;29.20;;;;;;5073991;28;20089;-62
2021/09/08 07:43:09;;;;;;;15.80;10.10;;;37.60;28.40;;;;;;5056002;28;20020;-63
2021/09/08 07:45:35;;;;;;;12.23;9.57;;;38.40;28.00;;;;;;5055372;28;20027;-64
2021/09/08 07:48:00;;;;;;;13.90;10.38;;;39.10;27.60;;;;;;5073728;28;20075;-64
2021/09/08 07:50:27;;;;;;;14.45;9.63;;;39.90;26.80;;;;;;5072898;28;20111;-64
2021/09/08 07:52:52;;;;;;;12.43;10.20;;;40.40;26.50;;;;;;5073887;28;20039;-64
2021/09/08 07:55:18;;;;;;;14.40;9.27;;;41.10;26.20;;;;;;5055039;28;20029;-66
2021/09/08 07:57:44;;;;;;;14.52;9.27;;;42.00;25.70;;;;;;5055296;28;20032;-63
2021/09/08 08:00:10;;;;;;;16.02;9.65;;;42.30;25.10;;;;;;5055518;28;20037;-64
2021/09/08 08:02:43;;;;;;;13.50;9.57;;;42.70;25.00;;;;;;5072917;28;20036;-64
2021/09/08 08:05:09;;;;;;;10.85;9.45;;;43.20;24.60;;;;;;5073468;28;20097;-66
2021/09/08 08:07:36;;;;;;;16.30;9.18;;;44.10;24.60;;;;;;5068059;28;20313;-65
2021/09/08 08:10:03;;;;;;;11.60;9.20;;;44.60;24.10;;;;;;5054991;28;20037;-64
2021/09/08 08:12:29;;;;;;;14.50;8.80;;;44.80;23.50;;;;;;5072236;28;20028;-66
2021/09/08 08:14:55;;;;;;;14.75;8.10;;;44.60;23.40;;;;;;5055071;28;20039;-66
2021/09/08 08:17:21;;;;;;;12.32;8.50;;;44.60;23.30;;;;;;5072840;28;20025;-65
2021/09/08 08:19:47;;;;;;;16.80;8.48;;;44.90;23.50;;;;;;5054935;28;20117;-65
2021/09/08 08:22:15;;;;;;;14.18;8.82;;;44.90;23.20;;;;;;5054870;28;20033;-65
2021/09/08 08:24:41;;;;;;;12.85;8.75;;;44.50;23.20;;;;;;5054354;28;20098;-64
2021/09/08 08:27:07;;;;;;;10.63;8.35;;;44.30;23.00;;;;;;5052963;28;20243;-65
2021/09/08 08:29:33;;;;;;;11.10;8.38;;;43.90;23.00;;;;;;5071117;28;20054;-66
2021/09/08 08:31:59;;;;;;;14.27;8.35;;;43.40;23.30;;;;;;5071928;28;20442;-65
2021/09/08 08:34:25;;;;;;;20.98;11.60;;;43.20;23.30;;;;;;5071008;28;20035;-65
2021/09/08 08:36:52;;;;;;;17.35;8.07;;;43.00;23.50;;;;;;5071485;28;20071;-64
2021/09/08 08:39:18;;;;;;;19.10;8.77;;;42.50;23.60;;;;;;5071363;28;20025;-66
2021/09/08 08:41:45;;;;;;;15.45;8.05;;;41.20;23.80;;;;;;5071175;28;20040;-65
2021/09/08 08:44:10;;;;;;;20.98;8.05;;;39.00;24.80;;;;;;5053528;28;20025;-65
2021/09/08 08:46:37;;;;;;;14.93;8.30;;;36.90;26.00;;;;;;5070856;28;20032;-64
2021/09/08 08:49:04;;;;;;;23.08;8.30;;;34.90;27.30;;;;;;5071442;28;20025;-65
2021/09/08 08:51:31;;;;;;;13.52;7.95;;;33.60;28.50;;;;;;5071150;28;20035;-66
2021/09/08 08:53:56;;;;;;;18.40;7.93;;;32.60;29.50;;;;;;5053606;28;20037;-65
2021/09/08 08:56:24;;;;;;;19.05;8.27;;;31.60;30.40;;;;;;5070534;28;20415;-66
2021/09/08 08:58:51;;;;;;;19.42;7.85;;;30.80;31.40;;;;;;5071651;28;20024;-65
2021/09/08 09:01:26;;;;;;;14.25;7.97;;;29.90;32.60;;;;;;5053342;28;20401;-65
2021/09/08 09:04:03;;;;;;;11.95;8.10;;;29.10;34.00;;;;;;5053532;28;20028;-66
2021/09/08 09:06:29;;;;;;;16.98;8.10;;;28.50;35.60;;;;;;5071026;28;20025;-67
2021/09/08 09:09:13;;;;;;;17.75;8.00;;;28.00;35.60;;;;;;5053612;28;20111;-66
2021/09/08 09:11:40;;;;;;;19.08;8.57;;;27.60;36.50;;;;;;5071081;28;20185;-65
2021/09/08 09:14:09;;;;;;;13.43;8.43;;;27.30;37.00;;;;;;5071351;28;20024;-65
2021/09/08 09:16:37;;;;;;;11.32;7.75;;;27.00;37.60;;;;;;5053320;28;20528;-65
2021/09/08 09:19:03;;;;;;;16.08;8.25;;;26.70;38.00;;;;;;5053563;28;20032;-65
2021/09/08 09:21:29;;;;;;;11.70;7.85;;;26.50;38.60;;;;;;5053191;28;20036;-64
2021/09/08 09:23:57;;;;;;;15.38;9.20;;;26.20;39.00;;;;;;5053413;28;20200;-66
2021/09/08 09:26:26;;;;;;;17.48;8.38;;;26.10;39.40;;;;;;5070783;28;20052;-65
2021/09/08 09:28:54;;;;;;;14.70;8.18;;;26.00;39.70;;;;;;5053437;28;20043;-65
2021/09/08 09:31:23;;;;;;;17.05;8.00;;;26.00;39.90;;;;;;5070673;28;20179;-66
2021/09/08 09:33:54;;;;;;;13.25;7.80;;;25.80;40.20;;;;;;5071191;28;20020;-63
2021/09/08 09:36:31;;;;;;;23.80;8.52;;;25.80;40.50;;;;;;5070620;28;20025;-64
2021/09/08 09:38:58;;;;;;;16.52;7.93;;;25.80;40.70;;;;;;5071025;28;20032;-64
2021/09/08 09:41:26;;;;;;;13.57;7.47;;;25.70;40.70;;;;;;5052630;28;20028;-65
2021/09/08 09:43:52;;;;;;;20.55;7.85;;;25.60;40.90;;;;;;5071474;28;20096;-64
2021/09/08 09:46:18;;;;;;;23.40;7.80;;;25.50;41.20;;;;;;5036964;28;20060;-64
2021/09/08 09:48:45;;;;;;;16.80;7.15;;;25.50;41.30;;;;;;5070788;28;20035;-65
2021/09/08 09:51:13;;;;;;;12.35;7.03;;;25.60;41.10;;;;;;5053286;28;20060;-66
2021/09/08 09:53:39;;;;;;;18.73;7.90;;;25.60;40.80;;;;;;5052591;28;20051;-65
2021/09/08 09:56:06;;;;;;;13.80;7.13;;;25.50;41.00;;;;;;5071052;28;20374;-66
2021/09/08 09:58:32;;;;;;;14.82;6.90;;;25.50;40.60;;;;;;5070885;28;20084;-65
2021/09/08 10:00:58;;;;;;;16.10;6.72;;;25.40;40.70;;;;;;5071150;28;20028;-65
2021/09/08 10:03:24;;;;;;;17.48;6.82;;;25.40;40.90;;;;;;5070432;28;20031;-65
2021/09/08 10:05:50;;;;;;;15.95;6.78;;;25.40;41.00;;;;;;5070687;28;20044;-66
2021/09/08 10:08:20;;;;;;;14.85;6.30;;;25.30;40.90;;;;;;5070450;28;20064;-66
2021/09/08 10:10:50;;;;;;;14.45;6.70;;;25.30;41.20;;;;;;5052138;28;20036;-65
2021/09/08 10:13:22;;;;;;;20.25;6.72;;;25.30;41.40;;;;;;5052469;28;20021;-68
2021/09/08 10:15:50;;;;;;;19.70;6.90;;;25.30;40.50;;;;;;5071021;28;20486;-66
2021/09/08 10:18:25;;;;;;;14.10;6.93;;;25.40;40.00;;;;;;5052120;28;20028;-66
2021/09/08 10:21:04;;;;;;;21.65;6.43;;;25.50;39.00;;;;;;5052707;28;20039;-66
2021/09/08 10:23:39;;;;;;;17.65;6.75;;;25.60;38.20;;;;;;5070333;28;20036;-65
2021/09/08 10:26:14;;;;;;;16.17;6.30;;;25.70;37.10;;;;;;5069839;28;20064;-65
2021/09/08 10:28:41;;;;;;;19.55;5.88;;;25.70;37.20;;;;;;5051587;28;20543;-66
2021/09/08 10:31:13;;;;;;;26.92;6.50;;;25.70;36.10;;;;;;5070655;28;20087;-67
2021/09/08 10:33:40;;;;;;;11.02;5.75;;;25.70;36.20;;;;;;5070523;28;20024;-66
2021/09/08 10:36:10;;;;;;;14.52;6.18;;;25.70;36.50;;;;;;5070457;28;20548;-65
2021/09/08 10:38:36;;;;;;;15.82;5.95;;;25.80;36.20;;;;;;5051849;28;20021;-66
2021/09/08 10:41:06;;;;;;;12.10;5.90;;;25.80;35.90;;;;;;5070443;28;20311;-65
2021/09/08 10:43:34;;;;;;;18.20;6.47;;;25.80;34.70;;;;;;5070012;28;20024;-66
2021/09/08 10:46:01;;;;;;;16.75;6.43;;;25.70;35.00;;;;;;5070288;28;20099;-65
2021/09/08 10:48:45;;;;;;;21.05;7.00;;;25.70;36.10;;;;;;5069781;28;20378;-65
2021/09/08 10:51:16;;;;;;;13.25;5.57;;;25.80;36.40;;;;;;5053609;28;20039;-65
2021/09/08 10:53:43;;;;;;;17.63;6.13;;;25.80;36.70;;;;;;5055462;28;20461;-65
2021/09/08 10:56:09;;;;;;;21.00;6.22;;;25.80;36.60;;;;;;5073945;28;20415;-66
2021/09/08 10:59:00;;;;;;;15.75;6.32;;;25.80;36.40;;;;;;5054936;28;20028;-67
2021/09/08 11:01:27;;;;;;;13.43;6.18;;;25.80;37.10;;;;;;5055377;28;20032;-67
2021/09/08 11:03:53;;;;;;;16.38;5.82;;;25.80;37.20;;;;;;5072308;28;20029;-68
2021/09/08 11:06:37;;;;;;;15.23;6.30;;;25.70;37.50;;;;;;5073007;28;20128;-69
2021/09/08 11:09:06;;;;;;;11.77;6.00;;;25.70;37.80;;;;;;5054223;28;20373;-67
2021/09/08 11:11:32;;;;;;;13.40;6.30;;;25.70;37.40;;;;;;5053436;28;20036;-68
2021/09/08 11:13:58;;;;;;;12.20;5.93;;;25.80;37.40;;;;;;5072486;28;20115;-67
2021/09/08 11:16:30;;;;;;;10.73;6.40;;;25.80;37.50;;;;;;5054681;28;20025;-65
2021/09/08 11:19:00;;;;;;;11.88;6.13;;;25.80;37.70;;;;;;5073230;28;20029;-67
2021/09/08 11:21:31;;;;;;;11.18;6.30;;;25.80;37.80;;;;;;5072052;28;20104;-66
2021/09/08 11:24:04;;;;;;;13.48;6.97;;;25.80;37.80;;;;;;5072707;28;20031;-67
2021/09/08 11:26:32;;;;;;;11.55;6.03;;;25.90;37.90;;;;;;5053751;28;20516;-67
2021/09/08 11:29:06;;;;;;;12.27;6.07;;;26.00;37.40;;;;;;5054509;28;20264;-66
2021/09/08 11:31:44;;;;;;;21.05;6.82;;;26.00;37.40;;;;;;5072221;28;20041;-66
2021/09/08 11:34:22;;;;;;;13.13;6.28;;;26.00;37.60;;;;;;5054751;28;20060;-65
2021/09/08 11:36:53;;;;;;;18.13;6.15;;;26.10;37.20;;;;;;5072331;28;20017;-65
2021/09/08 11:39:23;;;;;;;11.48;6.55;;;26.20;37.60;;;;;;5054939;28;20108;-65
2021/09/08 11:42:07;;;;;;;23.95;6.45;;;26.30;37.10;;;;;;5054331;28;20035;-66
2021/09/08 11:44:33;;;;;;;11.40;6.40;;;26.30;36.00;;;;;;5054186;28;20480;-65
2021/09/08 11:46:59;;;;;;;11.70;5.18;;;26.30;36.20;;;;;;5054745;28;20028;-63
2021/09/08 11:49:25;;;;;;;18.33;6.13;;;26.40;34.80;;;;;;5073062;28;20044;-65
2021/09/08 11:51:52;;;;;;;13.18;5.50;;;26.40;34.90;;;;;;5071777;28;20040;-66
2021/09/08 11:54:20;;;;;;;13.25;5.47;;;26.50;33.80;;;;;;5051204;28;20025;-73
2021/09/08 11:57:01;;;;;;;11.48;5.13;;;26.50;32.80;;;;;;5053083;28;20040;-61
2021/09/08 11:59:33;;;;;;;17.80;5.55;;;26.60;32.60;;;;;;5069822;28;20039;-58
2021/09/08 12:02:00;;;;;;;13.77;5.07;;;26.60;32.80;;;;;;5069807;28;20044;-58
2021/09/08 12:04:27;;;;;;;15.68;5.47;;;26.70;32.70;;;;;;5050514;28;20029;-66
2021/09/08 12:07:07;;;;;;;23.10;5.47;;;26.70;32.50;;;;;;5071870;28;20624;-66
2021/09/08 12:09:34;;;;;;;14.80;5.45;;;26.70;32.30;;;;;;5052202;28;20025;-67
2021/09/08 12:12:05;;;;;;;15.93;4.85;;;26.70;32.00;;;;;;5071214;28;20079;-65
2021/09/08 12:14:40;;;;;;;16.77;5.93;;;26.70;31.70;;;;;;5053028;28;20110;-66
2021/09/08 12:17:08;;;;;;;15.50;5.65;;;26.80;32.40;;;;;;5052919;28;20458;-64
2021/09/08 12:19:42;;;;;;;11.50;5.40;;;26.80;32.30;;;;;;5052632;28;20086;-60
2021/09/08 12:22:15;;;;;;;;;;;26.80;33.10;;;;;;5071251;28;20507;-70
2021/09/08 12:25:17;;;;;;;13.60;5.43;;;26.90;32.30;;;;;;5052493;28;19904;-62
2021/09/08 12:27:45;;;;;;;12.00;5.70;;;27.00;33.10;;;;;;5071190;28;20036;-62
2021/09/08 12:30:14;;;;;;;15.15;5.30;;;27.00;32.70;;;;;;5071572;28;20032;-61
2021/09/08 12:32:47;;;;;;;17.95;5.35;;;27.10;32.30;;;;;;5070913;28;20513;-66
2021/09/08 12:35:32;;;;;;;14.73;5.45;;;27.10;32.70;;;;;;5053059;28;20388;-67
2021/09/08 12:37:58;;;;;;;8.38;5.25;;;27.10;31.50;;;;;;5052738;28;20064;-66